Terminal Aerodrome Forecast
Issued by NWS

Home | Current Version | Previous Version | Text Only | Print | Product List | Glossary On
Versions: 1 2 3 4 5 6 7 8 9 10 11 12 13 14 15 16 17 18 19
000
FTUS44 KCRP 291121
TAFLRD
TAF
KLRD 291121Z 2912/3012 13010KT 6SM HZ OVC016
     FM291500 17008KT P6SM BKN025
     FM291700 24007KT P6SM SCT050 BKN250
     FM300400 08012KT P6SM SCT025 BKN250
     FM300800 11008KT P6SM BKN015=

USA.gov is the U.S. government's official web portal to all federal, state and local government web resources and services.